Aktualna pogoda na lotniskach (dane METAR)

 

EPGD - Gdansk/Rebiechow, Poland
Distance from station: ENE 44km
Updated: Thu, 21-Sep-2017 05:00 CEST
Fog, Few clouds
Fog, Few clouds
 Wind from W
Wiatr: W 4 km/h
Temperatura: 7°C
Punkt Rosy: 7°C
Wilgotność: 100%
Ciśnienie: 1018 hPa
Ogólnie: Fog
Zachmurzenie: Few Clouds
Widzialność: 0 km
Szczegóły zachm.: Few Clouds 0 m
2017/09/21 03:00 EPGD 210300Z 27002KT 0150 R29/0100N FG FEW000 07/07 Q1018
EPSC - Szczecin/Golenio, Poland
Distance from station: WSW 205km
Updated: Thu, 21-Sep-2017 05:00 CEST
Few Clouds
Few Clouds
 Wind from varies
Wiatr: varies 4 km/h
Temperatura: 10°C
Punkt Rosy: 9°C
Wilgotność: 94%
Ciśnienie: 1019 hPa
Zachmurzenie: Few Clouds
Widzialność: 8 km
Szczegóły zachm.: Few Clouds 792 m
2017/09/21 03:00 EPSC 210300Z VRB02KT 8000 FEW026 10/09 Q1019
 
EPPO - Poznan/Lawica, Poland
Distance from station: SSW 210km
Updated: Thu, 21-Sep-2017 05:00 CEST
Clear
Clear
 Wind from NW
Wiatr: NW 13 km/h
Temperatura: 8°C
Indeks Wychł.: 6°C
Punkt Rosy: 7°C
Wilgotność: 93%
Ciśnienie: 1019 hPa
Ogólnie: Clear
Widzialność: greater than 10 km
2017/09/21 03:00 EPPO 210300Z 32007KT CAVOK 08/07 Q1019
EPLL - Lodz/Lublinek, Poland
Distance from station: SSE 296km
Updated: Thu, 21-Sep-2017 05:00 CEST
Clear
Clear
 Wind from NW
Wiatr: NW 9 km/h
Temperatura: 9°C
Indeks Wychł.: 7°C
Punkt Rosy: 8°C
Wilgotność: 94%
Ciśnienie: 1016 hPa
Ogólnie: Clear
Widzialność: greater than 10 km
2017/09/21 03:00 EPLL 210300Z 32005KT CAVOK 09/08 Q1016
 
EPWA - Warsaw/Okecie, Poland
Distance from station: SE 307km
Updated: Thu, 21-Sep-2017 05:00 CEST
Mostly Cloudy
Mostly Cloudy
 Wind from N
Wiatr: N 20 km/h
Temperatura: 11°C
Punkt Rosy: 10°C
Wilgotność: 94%
Ciśnienie: 1015 hPa
Zachmurzenie: Mostly Cloudy
Widzialność: 10 km
Szczegóły zachm.: Mostly Cloudy 213 m
2017/09/21 03:00 EPWA 210300Z 36011KT 9999 BKN007 11/10 Q1015 NOSIG
EPWR - Wroclaw/Strachow, Poland
Distance from station: S 352km
Updated: Thu, 21-Sep-2017 05:00 CEST
Clear
Clear
 Wind from WNW
Wiatr: WNW 11 km/h
Temperatura: 5°C
Indeks Wychł.: 2°C
Punkt Rosy: 5°C
Wilgotność: 100%
Ciśnienie: 1019 hPa
Ogólnie: Clear
Widzialność: greater than 10 km
2017/09/21 03:00 EPWR 210300Z 30006KT CAVOK 05/05 Q1019

Metar display script from Saratoga-Weather.org